Terminal Aerodrome Forecast
Issued by NWS

Home | Current Version | Previous Version | Text Only | Print | Product List | Glossary On
Versions: 1 2 3 4 5 6 7 8 9 10 11 12 13
000
FTUS43 KMPX 011100
TAFRNH
TAF
KRNH 011120Z 0112/0212 VRB02KT P6SM SCT050
      TEMPO 0112/0113 4SM BR
     FM011600 30004KT P6SM SCT050
     FM011900 31005KT P6SM VCSH SCT050 BKN080
      TEMPO 0119/0122 5SM -TSRA BKN040CB
     FM020100 00000KT P6SM FEW050
     FM021000 00000KT 2SM BR FEW015=

USA.gov is the U.S. government's official web portal to all federal, state and local government web resources and services.